sensor_id;sensor_type;location;lat;lon;timestamp;temperature;humidity
13256;DHT22;37913;48.370;10.930;2023-09-12T00:01:25;16.20;99.90
13256;DHT22;37913;48.370;10.930;2023-09-12T00:03:53;16.00;99.90
13256;DHT22;37913;48.370;10.930;2023-09-12T00:06:20;16.00;99.90
13256;DHT22;37913;48.370;10.930;2023-09-12T00:08:47;16.00;99.90
13256;DHT22;37913;48.370;10.930;2023-09-12T00:11:14;16.00;99.90
13256;DHT22;37913;48.370;10.930;2023-09-12T00:13:41;16.10;99.90
13256;DHT22;37913;48.370;10.930;2023-09-12T00:16:08;16.10;99.90
13256;DHT22;37913;48.370;10.930;2023-09-12T00:18:36;16.00;99.90
13256;DHT22;37913;48.370;10.930;2023-09-12T00:21:04;15.90;99.90
13256;DHT22;37913;48.370;10.930;2023-09-12T00:23:31;15.80;99.90
13256;DHT22;37913;48.370;10.930;2023-09-12T00:25:58;15.80;99.90
13256;DHT22;37913;48.370;10.930;2023-09-12T00:28:25;15.80;99.90
13256;DHT22;37913;48.370;10.930;2023-09-12T00:30:52;15.80;99.90
13256;DHT22;37913;48.370;10.930;2023-09-12T00:33:19;15.70;99.90
13256;DHT22;37913;48.370;10.930;2023-09-12T00:35:46;15.70;99.90
13256;DHT22;37913;48.370;10.930;2023-09-12T00:38:14;15.60;99.90
13256;DHT22;37913;48.370;10.930;2023-09-12T00:40:41;15.60;99.90
13256;DHT22;37913;48.370;10.930;2023-09-12T00:43:08;15.50;99.90
13256;DHT22;37913;48.370;10.930;2023-09-12T00:45:37;15.50;99.90
13256;DHT22;37913;48.370;10.930;2023-09-12T00:48:05;15.50;99.90
13256;DHT22;37913;48.370;10.930;2023-09-12T00:50:32;15.60;99.90
13256;DHT22;37913;48.370;10.930;2023-09-12T00:53:01;15.60;99.90
13256;DHT22;37913;48.370;10.930;2023-09-12T00:55:32;15.50;99.90
13256;DHT22;37913;48.370;10.930;2023-09-12T00:57:59;15.50;99.90
13256;DHT22;37913;48.370;10.930;2023-09-12T01:00:27;15.40;99.90
13256;DHT22;37913;48.370;10.930;2023-09-12T01:02:54;15.40;99.90
13256;DHT22;37913;48.370;10.930;2023-09-12T01:05:22;15.40;99.90
13256;DHT22;37913;48.370;10.930;2023-09-12T01:07:49;15.30;99.90
13256;DHT22;37913;48.370;10.930;2023-09-12T01:10:17;15.30;99.90
13256;DHT22;37913;48.370;10.930;2023-09-12T01:12:45;15.40;99.90
13256;DHT22;37913;48.370;10.930;2023-09-12T01:15:12;15.50;99.90
13256;DHT22;37913;48.370;10.930;2023-09-12T01:17:41;15.50;99.90
13256;DHT22;37913;48.370;10.930;2023-09-12T01:20:11;15.40;99.90
13256;DHT22;37913;48.370;10.930;2023-09-12T01:23:19;15.30;99.90
13256;DHT22;37913;48.370;10.930;2023-09-12T01:26:20;15.10;99.90
13256;DHT22;37913;48.370;10.930;2023-09-12T01:28:54;15.10;99.90
13256;DHT22;37913;48.370;10.930;2023-09-12T01:31:22;15.10;99.90
13256;DHT22;37913;48.370;10.930;2023-09-12T01:33:55;15.10;99.90
13256;DHT22;37913;48.370;10.930;2023-09-12T01:36:22;15.20;99.90
13256;DHT22;37913;48.370;10.930;2023-09-12T01:38:48;15.20;99.90
13256;DHT22;37913;48.370;10.930;2023-09-12T01:41:16;15.20;99.90
13256;DHT22;37913;48.370;10.930;2023-09-12T01:43:43;15.20;99.90
13256;DHT22;37913;48.370;10.930;2023-09-12T01:46:11;15.10;99.90
13256;DHT22;37913;48.370;10.930;2023-09-12T01:48:40;15.10;99.90
13256;DHT22;37913;48.370;10.930;2023-09-12T01:51:07;15.10;99.90
13256;DHT22;37913;48.370;10.930;2023-09-12T01:53:35;15.10;99.90
13256;DHT22;37913;48.370;10.930;2023-09-12T01:56:03;15.00;99.90
13256;DHT22;37913;48.370;10.930;2023-09-12T01:58:30;15.00;99.90
13256;DHT22;37913;48.370;10.930;2023-09-12T02:00:58;15.10;99.90
13256;DHT22;37913;48.370;10.930;2023-09-12T02:03:26;15.10;99.90
13256;DHT22;37913;48.370;10.930;2023-09-12T02:05:53;15.00;99.90
13256;DHT22;37913;48.370;10.930;2023-09-12T02:08:20;14.90;99.90
13256;DHT22;37913;48.370;10.930;2023-09-12T02:10:47;14.90;99.90
13256;DHT22;37913;48.370;10.930;2023-09-12T02:13:14;14.90;99.90
13256;DHT22;37913;48.370;10.930;2023-09-12T02:15:40;14.90;99.90
13256;DHT22;37913;48.370;10.930;2023-09-12T02:18:07;14.90;99.90
13256;DHT22;37913;48.370;10.930;2023-09-12T02:20:38;14.90;99.90
13256;DHT22;37913;48.370;10.930;2023-09-12T02:23:05;14.80;99.90
13256;DHT22;37913;48.370;10.930;2023-09-12T02:25:32;14.80;99.90
13256;DHT22;37913;48.370;10.930;2023-09-12T02:27:59;14.90;99.90
13256;DHT22;37913;48.370;10.930;2023-09-12T02:30:26;14.90;99.90
13256;DHT22;37913;48.370;10.930;2023-09-12T02:32:53;15.00;99.90
13256;DHT22;37913;48.370;10.930;2023-09-12T02:35:20;15.00;99.90
13256;DHT22;37913;48.370;10.930;2023-09-12T02:37:48;14.90;99.90
13256;DHT22;37913;48.370;10.930;2023-09-12T02:40:15;14.80;99.90
13256;DHT22;37913;48.370;10.930;2023-09-12T02:42:43;14.80;99.90
13256;DHT22;37913;48.370;10.930;2023-09-12T02:45:10;14.80;99.90
13256;DHT22;37913;48.370;10.930;2023-09-12T02:47:37;14.80;99.90
13256;DHT22;37913;48.370;10.930;2023-09-12T02:50:05;14.70;99.90
13256;DHT22;37913;48.370;10.930;2023-09-12T02:52:31;14.70;99.90
13256;DHT22;37913;48.370;10.930;2023-09-12T02:55:00;14.70;99.90
13256;DHT22;37913;48.370;10.930;2023-09-12T02:57:27;14.80;99.90
13256;DHT22;37913;48.370;10.930;2023-09-12T02:59:54;14.90;99.90
13256;DHT22;37913;48.370;10.930;2023-09-12T03:02:21;15.00;99.90
13256;DHT22;37913;48.370;10.930;2023-09-12T03:04:48;15.10;99.90
13256;DHT22;37913;48.370;10.930;2023-09-12T03:07:15;15.00;99.90
13256;DHT22;37913;48.370;10.930;2023-09-12T03:09:42;15.10;99.90
13256;DHT22;37913;48.370;10.930;2023-09-12T03:12:10;15.10;99.90
13256;DHT22;37913;48.370;10.930;2023-09-12T03:14:37;15.10;99.90
13256;DHT22;37913;48.370;10.930;2023-09-12T03:17:04;15.00;99.90
13256;DHT22;37913;48.370;10.930;2023-09-12T03:19:30;14.90;99.90
13256;DHT22;37913;48.370;10.930;2023-09-12T03:21:57;14.90;99.90
13256;DHT22;37913;48.370;10.930;2023-09-12T03:24:24;14.90;99.90
13256;DHT22;37913;48.370;10.930;2023-09-12T03:26:51;14.80;99.90
13256;DHT22;37913;48.370;10.930;2023-09-12T03:29:19;14.70;99.90
13256;DHT22;37913;48.370;10.930;2023-09-12T03:31:46;14.80;99.90
13256;DHT22;37913;48.370;10.930;2023-09-12T03:34:13;14.80;99.90
13256;DHT22;37913;48.370;10.930;2023-09-12T03:36:40;14.80;99.90
13256;DHT22;37913;48.370;10.930;2023-09-12T03:39:07;14.90;99.90
13256;DHT22;37913;48.370;10.930;2023-09-12T03:41:34;14.80;99.90
13256;DHT22;37913;48.370;10.930;2023-09-12T03:44:01;14.70;99.90
13256;DHT22;37913;48.370;10.930;2023-09-12T03:46:30;14.80;99.90
13256;DHT22;37913;48.370;10.930;2023-09-12T03:48:57;14.90;99.90
13256;DHT22;37913;48.370;10.930;2023-09-12T03:51:24;14.80;99.90
13256;DHT22;37913;48.370;10.930;2023-09-12T03:53:50;14.80;99.90
13256;DHT22;37913;48.370;10.930;2023-09-12T03:56:17;14.70;99.90
13256;DHT22;37913;48.370;10.930;2023-09-12T03:58:45;14.50;99.90
13256;DHT22;37913;48.370;10.930;2023-09-12T04:01:12;14.40;99.90
13256;DHT22;37913;48.370;10.930;2023-09-12T04:03:40;14.30;99.90
13256;DHT22;37913;48.370;10.930;2023-09-12T04:06:07;14.30;99.90
13256;DHT22;37913;48.370;10.930;2023-09-12T04:08:34;14.20;99.90
13256;DHT22;37913;48.370;10.930;2023-09-12T04:11:01;14.20;99.90
13256;DHT22;37913;48.370;10.930;2023-09-12T04:13:28;14.20;99.90
13256;DHT22;37913;48.370;10.930;2023-09-12T04:15:56;14.20;99.90
13256;DHT22;37913;48.370;10.930;2023-09-12T04:18:23;14.10;99.90
13256;DHT22;37913;48.370;10.930;2023-09-12T04:20:51;14.40;99.90
13256;DHT22;37913;48.370;10.930;2023-09-12T04:23:18;14.40;99.90
13256;DHT22;37913;48.370;10.930;2023-09-12T04:25:46;14.50;99.90
13256;DHT22;37913;48.370;10.930;2023-09-12T04:28:13;14.40;99.90
13256;DHT22;37913;48.370;10.930;2023-09-12T04:30:39;14.30;99.90
13256;DHT22;37913;48.370;10.930;2023-09-12T04:33:06;14.10;99.90
13256;DHT22;37913;48.370;10.930;2023-09-12T04:35:33;14.10;99.90
13256;DHT22;37913;48.370;10.930;2023-09-12T04:38:02;14.10;99.90
13256;DHT22;37913;48.370;10.930;2023-09-12T04:40:29;14.20;99.90
13256;DHT22;37913;48.370;10.930;2023-09-12T04:42:56;14.30;99.90
13256;DHT22;37913;48.370;10.930;2023-09-12T04:45:23;14.30;99.90
13256;DHT22;37913;48.370;10.930;2023-09-12T04:47:50;14.30;99.90
13256;DHT22;37913;48.370;10.930;2023-09-12T04:50:20;14.30;99.90
13256;DHT22;37913;48.370;10.930;2023-09-12T04:52:47;14.30;99.90
13256;DHT22;37913;48.370;10.930;2023-09-12T04:55:15;14.30;99.90
13256;DHT22;37913;48.370;10.930;2023-09-12T04:57:42;14.30;99.90
13256;DHT22;37913;48.370;10.930;2023-09-12T05:00:10;14.30;99.90
13256;DHT22;37913;48.370;10.930;2023-09-12T05:02:38;14.40;99.90
13256;DHT22;37913;48.370;10.930;2023-09-12T05:05:05;14.40;99.90
13256;DHT22;37913;48.370;10.930;2023-09-12T05:07:33;14.50;99.90
13256;DHT22;37913;48.370;10.930;2023-09-12T05:10:00;14.50;99.90
13256;DHT22;37913;48.370;10.930;2023-09-12T05:12:30;14.50;99.90
13256;DHT22;37913;48.370;10.930;2023-09-12T05:14:57;14.60;99.90
13256;DHT22;37913;48.370;10.930;2023-09-12T05:17:25;14.60;99.90
13256;DHT22;37913;48.370;10.930;2023-09-12T05:19:51;14.60;99.90
13256;DHT22;37913;48.370;10.930;2023-09-12T05:22:19;14.80;99.90
13256;DHT22;37913;48.370;10.930;2023-09-12T05:24:46;15.00;99.90
13256;DHT22;37913;48.370;10.930;2023-09-12T05:27:13;15.10;99.90
13256;DHT22;37913;48.370;10.930;2023-09-12T05:29:42;15.30;99.90
13256;DHT22;37913;48.370;10.930;2023-09-12T05:32:09;15.40;99.90
13256;DHT22;37913;48.370;10.930;2023-09-12T05:34:35;15.60;99.90
13256;DHT22;37913;48.370;10.930;2023-09-12T05:37:03;15.80;99.90
13256;DHT22;37913;48.370;10.930;2023-09-12T05:39:30;15.90;99.90
13256;DHT22;37913;48.370;10.930;2023-09-12T05:41:57;16.10;99.90
13256;DHT22;37913;48.370;10.930;2023-09-12T05:44:23;16.20;99.90
13256;DHT22;37913;48.370;10.930;2023-09-12T05:46:52;16.50;99.90
13256;DHT22;37913;48.370;10.930;2023-09-12T05:49:19;16.60;99.90
13256;DHT22;37913;48.370;10.930;2023-09-12T05:51:46;16.80;99.90
13256;DHT22;37913;48.370;10.930;2023-09-12T05:54:13;16.90;53.10
13256;DHT22;37913;48.370;10.930;2023-09-12T05:56:41;17.10;41.50
13256;DHT22;37913;48.370;10.930;2023-09-12T05:59:08;17.30;1.00
13256;DHT22;37913;48.370;10.930;2023-09-12T06:01:35;17.50;1.00
13256;DHT22;37913;48.370;10.930;2023-09-12T06:04:04;17.70;1.00
13256;DHT22;37913;48.370;10.930;2023-09-12T06:06:32;18.10;1.00
13256;DHT22;37913;48.370;10.930;2023-09-12T06:08:59;18.20;1.00
13256;DHT22;37913;48.370;10.930;2023-09-12T06:11:26;18.40;1.00
13256;DHT22;37913;48.370;10.930;2023-09-12T06:13:53;18.50;1.00
13256;DHT22;37913;48.370;10.930;2023-09-12T06:16:20;18.80;1.00
13256;DHT22;37913;48.370;10.930;2023-09-12T06:18:47;19.10;99.90
13256;DHT22;37913;48.370;10.930;2023-09-12T06:21:16;19.40;59.10
13256;DHT22;37913;48.370;10.930;2023-09-12T06:23:43;20.10;1.00
13256;DHT22;37913;48.370;10.930;2023-09-12T06:26:10;20.00;99.90
13256;DHT22;37913;48.370;10.930;2023-09-12T06:28:36;20.00;99.90
13256;DHT22;37913;48.370;10.930;2023-09-12T06:31:03;20.60;1.00
13256;DHT22;37913;48.370;10.930;2023-09-12T06:33:30;21.50;1.00
13256;DHT22;37913;48.370;10.930;2023-09-12T06:35:57;21.90;1.00
13256;DHT22;37913;48.370;10.930;2023-09-12T06:38:25;22.00;1.00
13256;DHT22;37913;48.370;10.930;2023-09-12T06:40:52;22.10;1.00
13256;DHT22;37913;48.370;10.930;2023-09-12T06:43:20;21.00;99.90
13256;DHT22;37913;48.370;10.930;2023-09-12T06:45:47;20.90;1.00
13256;DHT22;37913;48.370;10.930;2023-09-12T06:48:14;21.50;99.90
13256;DHT22;37913;48.370;10.930;2023-09-12T06:50:42;21.80;1.00
13256;DHT22;37913;48.370;10.930;2023-09-12T06:53:09;23.10;99.90
13256;DHT22;37913;48.370;10.930;2023-09-12T06:55:37;23.80;99.90
13256;DHT22;37913;48.370;10.930;2023-09-12T06:58:04;22.40;99.90
13256;DHT22;37913;48.370;10.930;2023-09-12T07:00:31;21.70;1.00
13256;DHT22;37913;48.370;10.930;2023-09-12T07:02:58;22.40;1.00
13256;DHT22;37913;48.370;10.930;2023-09-12T07:05:25;22.70;1.00
13256;DHT22;37913;48.370;10.930;2023-09-12T07:07:52;24.10;99.90
13256;DHT22;37913;48.370;10.930;2023-09-12T07:10:19;25.60;1.00
13256;DHT22;37913;48.370;10.930;2023-09-12T07:12:48;26.80;99.90
13256;DHT22;37913;48.370;10.930;2023-09-12T07:15:15;27.30;99.90
13256;DHT22;37913;48.370;10.930;2023-09-12T07:17:42;26.50;1.00
13256;DHT22;37913;48.370;10.930;2023-09-12T07:20:09;26.40;99.90
13256;DHT22;37913;48.370;10.930;2023-09-12T07:22:38;25.70;1.00
13256;DHT22;37913;48.370;10.930;2023-09-12T07:25:07;26.10;1.00
13256;DHT22;37913;48.370;10.930;2023-09-12T07:27:35;27.20;99.90
13256;DHT22;37913;48.370;10.930;2023-09-12T07:30:03;28.30;99.90
13256;DHT22;37913;48.370;10.930;2023-09-12T07:32:30;28.40;99.90
13256;DHT22;37913;48.370;10.930;2023-09-12T07:34:57;30.00;84.00
13256;DHT22;37913;48.370;10.930;2023-09-12T07:37:24;30.60;10.50
13256;DHT22;37913;48.370;10.930;2023-09-12T07:39:51;27.20;99.90
13256;DHT22;37913;48.370;10.930;2023-09-12T07:42:22;26.80;99.90
13256;DHT22;37913;48.370;10.930;2023-09-12T07:44:49;27.40;99.90
13256;DHT22;37913;48.370;10.930;2023-09-12T07:47:17;28.00;99.90
13256;DHT22;37913;48.370;10.930;2023-09-12T07:49:44;30.00;71.70
13256;DHT22;37913;48.370;10.930;2023-09-12T07:52:11;32.20;1.00
13256;DHT22;37913;48.370;10.930;2023-09-12T07:54:38;33.70;1.00
13256;DHT22;37913;48.370;10.930;2023-09-12T07:57:05;35.20;1.00
13256;DHT22;37913;48.370;10.930;2023-09-12T07:59:32;36.50;1.00
13256;DHT22;37913;48.370;10.930;2023-09-12T08:01:59;37.10;1.00
13256;DHT22;37913;48.370;10.930;2023-09-12T08:04:28;36.90;1.00
13256;DHT22;37913;48.370;10.930;2023-09-12T08:06:55;36.00;1.00
13256;DHT22;37913;48.370;10.930;2023-09-12T08:09:22;37.50;1.00
13256;DHT22;37913;48.370;10.930;2023-09-12T08:11:49;38.10;1.00
13256;DHT22;37913;48.370;10.930;2023-09-12T08:14:15;37.50;1.00
13256;DHT22;37913;48.370;10.930;2023-09-12T08:16:45;37.50;1.00
13256;DHT22;37913;48.370;10.930;2023-09-12T08:19:12;36.60;1.00
13256;DHT22;37913;48.370;10.930;2023-09-12T08:21:41;38.30;1.00
13256;DHT22;37913;48.370;10.930;2023-09-12T08:24:07;39.10;1.00
13256;DHT22;37913;48.370;10.930;2023-09-12T08:26:34;39.70;1.00
13256;DHT22;37913;48.370;10.930;2023-09-12T08:29:01;40.20;1.00
13256;DHT22;37913;48.370;10.930;2023-09-12T08:31:28;40.90;1.00
13256;DHT22;37913;48.370;10.930;2023-09-12T08:33:55;41.30;1.00
13256;DHT22;37913;48.370;10.930;2023-09-12T08:36:22;41.60;1.00
13256;DHT22;37913;48.370;10.930;2023-09-12T08:38:51;41.70;1.00
13256;DHT22;37913;48.370;10.930;2023-09-12T08:41:17;42.00;1.00
13256;DHT22;37913;48.370;10.930;2023-09-12T08:43:45;41.90;1.00
13256;DHT22;37913;48.370;10.930;2023-09-12T08:46:13;41.50;1.00
13256;DHT22;37913;48.370;10.930;2023-09-12T08:48:42;41.70;1.00
13256;DHT22;37913;48.370;10.930;2023-09-12T08:51:11;42.80;1.00
13256;DHT22;37913;48.370;10.930;2023-09-12T08:53:39;43.50;1.00
13256;DHT22;37913;48.370;10.930;2023-09-12T08:56:07;44.30;1.00
13256;DHT22;37913;48.370;10.930;2023-09-12T08:58:35;44.90;1.00
13256;DHT22;37913;48.370;10.930;2023-09-12T09:01:03;44.70;1.00
13256;DHT22;37913;48.370;10.930;2023-09-12T09:03:31;43.20;1.00
13256;DHT22;37913;48.370;10.930;2023-09-12T09:05:59;42.70;1.00
13256;DHT22;37913;48.370;10.930;2023-09-12T09:08:27;42.70;1.00
13256;DHT22;37913;48.370;10.930;2023-09-12T09:10:55;43.30;1.00
13256;DHT22;37913;48.370;10.930;2023-09-12T09:13:24;43.90;1.00
13256;DHT22;37913;48.370;10.930;2023-09-12T09:16:09;44.40;1.00
13256;DHT22;37913;48.370;10.930;2023-09-12T09:18:50;46.00;1.00
13256;DHT22;37913;48.370;10.930;2023-09-12T09:21:17;47.00;1.00
13256;DHT22;37913;48.370;10.930;2023-09-12T09:23:45;47.80;1.00
13256;DHT22;37913;48.370;10.930;2023-09-12T09:26:12;46.30;1.00
13256;DHT22;37913;48.370;10.930;2023-09-12T09:28:40;46.70;1.00
13256;DHT22;37913;48.370;10.930;2023-09-12T09:31:11;46.70;1.00
13256;DHT22;37913;48.370;10.930;2023-09-12T09:33:39;46.80;1.00
13256;DHT22;37913;48.370;10.930;2023-09-12T09:36:07;47.00;1.00
13256;DHT22;37913;48.370;10.930;2023-09-12T09:38:35;47.20;1.00
13256;DHT22;37913;48.370;10.930;2023-09-12T09:41:04;48.20;1.00
13256;DHT22;37913;48.370;10.930;2023-09-12T09:43:32;45.50;1.00
13256;DHT22;37913;48.370;10.930;2023-09-12T09:46:01;44.40;1.00
13256;DHT22;37913;48.370;10.930;2023-09-12T09:48:28;45.70;1.00
13256;DHT22;37913;48.370;10.930;2023-09-12T09:51:01;47.30;1.00
13256;DHT22;37913;48.370;10.930;2023-09-12T09:53:30;47.50;1.00
13256;DHT22;37913;48.370;10.930;2023-09-12T09:56:08;46.70;1.00
13256;DHT22;37913;48.370;10.930;2023-09-12T09:58:36;46.30;1.00
13256;DHT22;37913;48.370;10.930;2023-09-12T10:01:07;47.20;1.00
13256;DHT22;37913;48.370;10.930;2023-09-12T10:03:36;44.20;1.00
13256;DHT22;37913;48.370;10.930;2023-09-12T10:06:04;42.80;1.00
13256;DHT22;37913;48.370;10.930;2023-09-12T10:08:32;44.10;1.00
13256;DHT22;37913;48.370;10.930;2023-09-12T10:11:01;45.00;1.00
13256;DHT22;37913;48.370;10.930;2023-09-12T10:13:32;44.80;1.00
13256;DHT22;37913;48.370;10.930;2023-09-12T10:16:00;43.60;1.00
13256;DHT22;37913;48.370;10.930;2023-09-12T10:18:35;45.30;1.00
13256;DHT22;37913;48.370;10.930;2023-09-12T10:21:11;43.40;1.00
13256;DHT22;37913;48.370;10.930;2023-09-12T10:23:44;41.20;1.00
13256;DHT22;37913;48.370;10.930;2023-09-12T10:26:12;44.90;1.00
13256;DHT22;37913;48.370;10.930;2023-09-12T10:28:40;47.20;1.00
13256;DHT22;37913;48.370;10.930;2023-09-12T10:31:09;49.50;1.00
13256;DHT22;37913;48.370;10.930;2023-09-12T10:33:39;50.30;1.00
13256;DHT22;37913;48.370;10.930;2023-09-12T10:36:08;51.10;1.00
13256;DHT22;37913;48.370;10.930;2023-09-12T10:38:39;51.70;1.00
13256;DHT22;37913;48.370;10.930;2023-09-12T10:41:09;50.40;1.00
13256;DHT22;37913;48.370;10.930;2023-09-12T10:43:38;48.30;1.00
13256;DHT22;37913;48.370;10.930;2023-09-12T10:46:07;48.90;1.00
13256;DHT22;37913;48.370;10.930;2023-09-12T10:48:35;46.90;1.00
13256;DHT22;37913;48.370;10.930;2023-09-12T10:51:04;48.50;1.00
13256;DHT22;37913;48.370;10.930;2023-09-12T10:53:31;44.50;1.00
13256;DHT22;37913;48.370;10.930;2023-09-12T10:56:00;44.10;1.00
13256;DHT22;37913;48.370;10.930;2023-09-12T10:58:28;47.00;1.00
13256;DHT22;37913;48.370;10.930;2023-09-12T11:01:21;49.70;1.00
13256;DHT22;37913;48.370;10.930;2023-09-12T11:03:48;49.90;1.00
13256;DHT22;37913;48.370;10.930;2023-09-12T11:06:24;49.30;1.00
13256;DHT22;37913;48.370;10.930;2023-09-12T11:09:16;48.70;1.00
13256;DHT22;37913;48.370;10.930;2023-09-12T11:11:45;50.60;1.00
13256;DHT22;37913;48.370;10.930;2023-09-12T11:14:13;51.40;1.00
13256;DHT22;37913;48.370;10.930;2023-09-12T11:16:41;46.80;1.00
13256;DHT22;37913;48.370;10.930;2023-09-12T11:19:16;48.60;1.00
13256;DHT22;37913;48.370;10.930;2023-09-12T11:21:46;47.70;1.00
13256;DHT22;37913;48.370;10.930;2023-09-12T11:24:14;47.60;1.00
13256;DHT22;37913;48.370;10.930;2023-09-12T11:26:53;50.60;1.00
13256;DHT22;37913;48.370;10.930;2023-09-12T11:29:21;51.60;1.00
13256;DHT22;37913;48.370;10.930;2023-09-12T11:31:53;47.50;1.00
13256;DHT22;37913;48.370;10.930;2023-09-12T11:34:24;48.20;1.00
13256;DHT22;37913;48.370;10.930;2023-09-12T11:36:55;49.40;1.00
13256;DHT22;37913;48.370;10.930;2023-09-12T11:39:23;49.50;1.00
13256;DHT22;37913;48.370;10.930;2023-09-12T11:41:51;48.70;1.00
13256;DHT22;37913;48.370;10.930;2023-09-12T11:44:19;42.00;1.00
13256;DHT22;37913;48.370;10.930;2023-09-12T11:46:48;43.10;1.00
13256;DHT22;37913;48.370;10.930;2023-09-12T11:49:16;45.40;1.00
13256;DHT22;37913;48.370;10.930;2023-09-12T11:51:47;45.60;1.00
13256;DHT22;37913;48.370;10.930;2023-09-12T11:54:17;47.20;1.00
13256;DHT22;37913;48.370;10.930;2023-09-12T11:56:46;50.20;1.00
13256;DHT22;37913;48.370;10.930;2023-09-12T11:59:14;51.40;1.00
13256;DHT22;37913;48.370;10.930;2023-09-12T12:01:44;51.30;1.00
13256;DHT22;37913;48.370;10.930;2023-09-12T12:04:11;51.00;1.00
13256;DHT22;37913;48.370;10.930;2023-09-12T12:06:38;52.10;1.00
13256;DHT22;37913;48.370;10.930;2023-09-12T12:09:05;53.50;1.00
13256;DHT22;37913;48.370;10.930;2023-09-12T12:11:34;50.40;1.00
13256;DHT22;37913;48.370;10.930;2023-09-12T12:14:10;49.60;1.00
13256;DHT22;37913;48.370;10.930;2023-09-12T12:16:37;51.00;1.00
13256;DHT22;37913;48.370;10.930;2023-09-12T12:19:04;52.50;1.00
13256;DHT22;37913;48.370;10.930;2023-09-12T12:21:31;51.50;1.00
13256;DHT22;37913;48.370;10.930;2023-09-12T12:23:59;51.70;1.00
13256;DHT22;37913;48.370;10.930;2023-09-12T12:26:26;51.30;1.00
13256;DHT22;37913;48.370;10.930;2023-09-12T12:28:54;53.70;1.00
13256;DHT22;37913;48.370;10.930;2023-09-12T12:31:22;54.10;1.00
13256;DHT22;37913;48.370;10.930;2023-09-12T12:33:52;53.60;1.00
13256;DHT22;37913;48.370;10.930;2023-09-12T12:36:19;52.30;1.00
13256;DHT22;37913;48.370;10.930;2023-09-12T12:38:47;50.00;1.00
13256;DHT22;37913;48.370;10.930;2023-09-12T12:41:15;49.80;1.00
13256;DHT22;37913;48.370;10.930;2023-09-12T12:43:43;50.00;1.00
13256;DHT22;37913;48.370;10.930;2023-09-12T12:46:12;50.70;1.00
13256;DHT22;37913;48.370;10.930;2023-09-12T12:48:43;45.20;1.00
13256;DHT22;37913;48.370;10.930;2023-09-12T12:51:14;49.50;1.00
13256;DHT22;37913;48.370;10.930;2023-09-12T12:53:44;52.10;1.00
13256;DHT22;37913;48.370;10.930;2023-09-12T12:56:13;49.10;1.00
13256;DHT22;37913;48.370;10.930;2023-09-12T12:58:46;52.10;1.00
13256;DHT22;37913;48.370;10.930;2023-09-12T13:01:14;54.60;1.00
13256;DHT22;37913;48.370;10.930;2023-09-12T13:03:41;53.00;1.00
13256;DHT22;37913;48.370;10.930;2023-09-12T13:06:08;50.70;1.00
13256;DHT22;37913;48.370;10.930;2023-09-12T13:08:39;47.60;1.00
13256;DHT22;37913;48.370;10.930;2023-09-12T13:11:07;50.20;1.00
13256;DHT22;37913;48.370;10.930;2023-09-12T13:13:34;50.30;1.00
13256;DHT22;37913;48.370;10.930;2023-09-12T13:16:02;50.20;1.00
13256;DHT22;37913;48.370;10.930;2023-09-12T13:18:31;51.80;1.00
13256;DHT22;37913;48.370;10.930;2023-09-12T13:20:58;52.70;1.00
13256;DHT22;37913;48.370;10.930;2023-09-12T13:23:25;53.90;1.00
13256;DHT22;37913;48.370;10.930;2023-09-12T13:25:52;52.70;1.00
13256;DHT22;37913;48.370;10.930;2023-09-12T13:28:19;51.30;1.00
13256;DHT22;37913;48.370;10.930;2023-09-12T13:30:46;52.60;1.00
13256;DHT22;37913;48.370;10.930;2023-09-12T13:33:13;53.00;1.00
13256;DHT22;37913;48.370;10.930;2023-09-12T13:35:42;53.90;1.00
13256;DHT22;37913;48.370;10.930;2023-09-12T13:38:09;52.90;1.00
13256;DHT22;37913;48.370;10.930;2023-09-12T13:40:37;52.90;1.00
13256;DHT22;37913;48.370;10.930;2023-09-12T13:43:04;53.30;1.00
13256;DHT22;37913;48.370;10.930;2023-09-12T13:45:31;53.70;1.00
13256;DHT22;37913;48.370;10.930;2023-09-12T13:47:59;53.20;1.00
13256;DHT22;37913;48.370;10.930;2023-09-12T13:50:26;51.30;1.00
13256;DHT22;37913;48.370;10.930;2023-09-12T13:52:56;50.50;1.00
13256;DHT22;37913;48.370;10.930;2023-09-12T13:55:23;51.70;1.00
13256;DHT22;37913;48.370;10.930;2023-09-12T13:57:50;51.20;1.00
13256;DHT22;37913;48.370;10.930;2023-09-12T14:00:17;51.20;1.00
13256;DHT22;37913;48.370;10.930;2023-09-12T14:02:44;49.90;1.00
13256;DHT22;37913;48.370;10.930;2023-09-12T14:05:11;48.40;1.00
13256;DHT22;37913;48.370;10.930;2023-09-12T14:07:38;46.70;1.00
13256;DHT22;37913;48.370;10.930;2023-09-12T14:10:07;47.40;1.00
13256;DHT22;37913;48.370;10.930;2023-09-12T14:12:34;48.30;1.00
13256;DHT22;37913;48.370;10.930;2023-09-12T14:15:01;48.30;1.00
13256;DHT22;37913;48.370;10.930;2023-09-12T14:17:28;47.80;1.00
13256;DHT22;37913;48.370;10.930;2023-09-12T14:19:55;47.20;1.00
13256;DHT22;37913;48.370;10.930;2023-09-12T14:22:22;47.00;1.00
13256;DHT22;37913;48.370;10.930;2023-09-12T14:24:49;46.10;1.00
13256;DHT22;37913;48.370;10.930;2023-09-12T14:27:17;43.50;1.00
13256;DHT22;37913;48.370;10.930;2023-09-12T14:29:44;41.80;1.00
13256;DHT22;37913;48.370;10.930;2023-09-12T14:32:14;42.10;1.00
13256;DHT22;37913;48.370;10.930;2023-09-12T14:34:41;42.10;1.00
13256;DHT22;37913;48.370;10.930;2023-09-12T14:37:08;41.80;1.00
13256;DHT22;37913;48.370;10.930;2023-09-12T14:39:34;40.20;1.00
13256;DHT22;37913;48.370;10.930;2023-09-12T14:42:01;38.50;1.00
13256;DHT22;37913;48.370;10.930;2023-09-12T14:44:35;37.90;1.00
13256;DHT22;37913;48.370;10.930;2023-09-12T14:47:02;37.20;1.00
13256;DHT22;37913;48.370;10.930;2023-09-12T14:49:29;37.00;1.00
13256;DHT22;37913;48.370;10.930;2023-09-12T14:51:56;36.20;1.00
13256;DHT22;37913;48.370;10.930;2023-09-12T14:54:23;35.40;1.00
13256;DHT22;37913;48.370;10.930;2023-09-12T14:56:50;34.40;1.00
13256;DHT22;37913;48.370;10.930;2023-09-12T14:59:17;33.70;1.00
13256;DHT22;37913;48.370;10.930;2023-09-12T15:01:45;33.00;1.00
13256;DHT22;37913;48.370;10.930;2023-09-12T15:04:12;32.90;1.00
13256;DHT22;37913;48.370;10.930;2023-09-12T15:06:39;32.90;1.00
13256;DHT22;37913;48.370;10.930;2023-09-12T15:09:06;32.40;1.00
13256;DHT22;37913;48.370;10.930;2023-09-12T15:11:33;32.20;1.00
13256;DHT22;37913;48.370;10.930;2023-09-12T15:14:00;32.10;1.00
13256;DHT22;37913;48.370;10.930;2023-09-12T15:16:27;32.00;1.00
13256;DHT22;37913;48.370;10.930;2023-09-12T15:18:58;31.60;1.00
13256;DHT22;37913;48.370;10.930;2023-09-12T15:21:25;31.40;1.00
13256;DHT22;37913;48.370;10.930;2023-09-12T15:23:52;31.30;1.00
13256;DHT22;37913;48.370;10.930;2023-09-12T15:26:18;31.20;1.00
13256;DHT22;37913;48.370;10.930;2023-09-12T15:28:45;30.90;1.00
13256;DHT22;37913;48.370;10.930;2023-09-12T15:31:12;30.90;1.00